createdAt,value
2023-02-19T00:00:00.384Z,72.7
2023-02-19T00:10:00.521Z,73.0
2023-02-19T00:20:00.630Z,73.2
2023-02-19T00:30:00.743Z,72.8
2023-02-19T00:40:00.744Z,72.4
2023-02-19T00:50:00.617Z,73.1
2023-02-19T01:00:00.628Z,73.7
2023-02-19T01:10:00.653Z,73.9
2023-02-19T01:20:00.526Z,73.7
2023-02-19T01:30:00.397Z,72.7
2023-02-19T01:40:00.305Z,72.7
2023-02-19T01:50:00.369Z,72.8
2023-02-19T02:00:00.577Z,73.2
2023-02-19T02:10:00.600Z,73.9
2023-02-19T02:20:00.491Z,74.7
2023-02-19T02:30:00.739Z,75.3
2023-02-19T02:40:00.509Z,75.0
2023-02-19T02:50:00.594Z,75.9
2023-02-19T03:00:00.664Z,76.5
2023-02-19T03:10:00.312Z,77.3
2023-02-19T03:20:00.486Z,78.2
2023-02-19T03:30:00.542Z,78.8
2023-02-19T03:40:00.312Z,79.2
2023-02-19T03:50:00.312Z,79.4
2023-02-19T04:00:00.350Z,79.7
2023-02-19T04:10:00.475Z,80.4
2023-02-19T04:20:00.698Z,80.7
2023-02-19T04:30:00.654Z,79.7
2023-02-19T04:40:00.636Z,78.9
2023-02-19T04:50:00.609Z,79.0
2023-02-19T05:00:00.532Z,78.9
2023-02-19T05:10:00.369Z,78.3
2023-02-19T05:20:00.350Z,77.7
2023-02-19T05:30:00.380Z,78.1
2023-02-19T05:40:00.295Z,77.5
2023-02-19T05:50:00.310Z,78.4
2023-02-19T06:00:00.295Z,78.9
2023-02-19T06:10:00.339Z,79.1
2023-02-19T06:20:00.343Z,79.2
2023-02-19T06:30:00.351Z,79.7
2023-02-19T06:40:01.250Z,80.1
2023-02-19T06:50:00.627Z,80.8
2023-02-19T07:00:00.777Z,80.8
2023-02-19T07:10:00.581Z,80.2
2023-02-19T07:20:00.510Z,79.4
2023-02-19T07:30:00.659Z,78.6
2023-02-19T07:40:00.359Z,78.1
2023-02-19T07:50:00.349Z,76.0
2023-02-19T08:00:00.302Z,76.2
2023-02-19T08:10:00.312Z,80.4
2023-02-19T08:20:00.313Z,82.8
2023-02-19T08:30:00.339Z,86.9
2023-02-19T08:40:00.295Z,88.5
2023-02-19T08:50:00.474Z,90.5
2023-02-19T09:00:00.712Z,92.0
2023-02-19T09:10:00.608Z,91.5
2023-02-19T09:20:00.569Z,91.8
2023-02-19T09:30:00.590Z,91.9
2023-02-19T09:40:00.674Z,91.4
2023-02-19T09:50:00.358Z,91.2
2023-02-19T10:00:00.286Z,91.2
2023-02-19T10:10:00.358Z,89.7
2023-02-19T10:20:00.608Z,89.8
2023-02-19T10:30:00.772Z,86.7
2023-02-19T10:40:00.789Z,84.5
2023-02-19T10:50:02.511Z,79.4
2023-02-19T11:00:00.307Z,76.2
2023-02-19T11:10:00.352Z,70.1
2023-02-19T11:20:00.277Z,67.5
2023-02-19T11:30:00.442Z,65.0
2023-02-19T11:40:00.361Z,67.0
2023-02-19T11:50:00.720Z,67.1
2023-02-19T12:00:00.727Z,63.3
2023-02-19T12:10:00.632Z,63.2
2023-02-19T12:20:00.422Z,63.8
2023-02-19T12:30:00.387Z,63.5
2023-02-19T12:40:00.325Z,69.2
2023-02-19T12:50:00.327Z,68.0
2023-02-19T13:00:00.352Z,64.5
2023-02-19T13:10:00.327Z,64.6
2023-02-19T13:20:00.475Z,72.9
2023-02-19T13:30:00.661Z,77.1
2023-02-19T13:40:00.584Z,77.4
2023-02-19T13:50:00.679Z,77.7
2023-02-19T14:00:00.617Z,71.0
2023-02-19T14:10:00.773Z,69.5
2023-02-19T14:20:00.803Z,67.2
2023-02-19T14:30:01.033Z,69.5
2023-02-19T14:40:00.279Z,71.3
2023-02-19T14:50:00.344Z,71.1
2023-02-19T15:00:00.308Z,72.7
2023-02-19T15:10:02.388Z,74.5
2023-02-19T15:20:00.295Z,74.4
2023-02-19T15:30:00.371Z,73.4
2023-02-19T15:40:00.306Z,74.1
2023-02-19T15:50:00.403Z,75.1
2023-02-19T16:00:00.773Z,75.1
2023-02-19T16:10:00.651Z,75.5
2023-02-19T16:20:01.053Z,81.5
2023-02-19T16:30:00.542Z,82.4
2023-02-19T16:40:00.317Z,85.9
2023-02-19T16:50:00.496Z,87.2
2023-02-19T17:00:00.301Z,86.7
2023-02-19T17:10:00.313Z,84.3
2023-02-19T17:20:00.303Z,83.3
2023-02-19T17:30:00.415Z,83.3
2023-02-19T17:40:00.287Z,82.6
2023-02-19T17:50:00.348Z,83.3
2023-02-19T18:00:00.374Z,83.3
2023-02-19T18:10:00.364Z,83.9
2023-02-19T18:20:00.379Z,84.6
2023-02-19T18:30:00.635Z,84.7
2023-02-19T18:40:00.707Z,85.6
2023-02-19T18:50:00.290Z,85.5
2023-02-19T19:00:00.364Z,85.6
2023-02-19T19:10:00.400Z,86.1
2023-02-19T19:20:00.354Z,85.8
2023-02-19T19:40:00.611Z,84.6
2023-02-19T19:50:00.776Z,83.7
2023-02-19T20:00:00.964Z,81.4
2023-02-19T20:10:00.601Z,80.9
2023-02-19T20:20:00.877Z,79.5
2023-02-19T20:30:00.498Z,78.7
2023-02-19T20:40:00.467Z,77.6
2023-02-19T20:50:00.499Z,77.8
2023-02-19T21:00:00.507Z,77.5
2023-02-19T21:10:00.511Z,78.2
2023-02-19T21:20:00.497Z,76.3
2023-02-19T21:30:00.514Z,71.5
